Time;durP1;ratioP1;P1;durP2;ratioP2;P2;SDS_P1;SDS_P2;PMS_P1;PMS_P2;Temp;Humidity;BMP_temperature;BMP_pressure;BME280_temperature;BME280_humidity;BME280_pressure;Samples;Min_cycle;Max_cycle;Signal;HPM_P1;HPM_P2
2023/10/20 00:00:06;;;;;;;5.95;3.47;;;17.30;74.70;;;;;;5039987;28;20040;-75
2023/10/20 00:02:33;;;;;;;5.38;3.53;;;17.30;74.80;;;;;;5036654;28;20025;-76
2023/10/20 00:05:03;;;;;;;4.93;3.80;;;17.30;74.70;;;;;;5046466;28;20041;-75
2023/10/20 00:07:30;;;;;;;4.70;3.72;;;17.30;74.80;;;;;;5024404;28;20057;-75
2023/10/20 00:09:56;;;;;;;4.55;3.22;;;17.30;74.70;;;;;;5024754;28;20417;-77
2023/10/20 00:12:21;;;;;;;4.45;3.67;;;17.30;74.80;;;;;;5037383;28;20032;-75
2023/10/20 00:14:47;;;;;;;4.25;3.42;;;17.30;74.80;;;;;;5035011;28;20029;-75
2023/10/20 00:17:13;;;;;;;5.60;4.28;;;17.30;74.80;;;;;;5038319;28;20044;-76
2023/10/20 00:19:38;;;;;;;4.32;3.28;;;17.30;74.80;;;;;;5036414;28;20552;-75
2023/10/20 00:22:04;;;;;;;5.30;3.80;;;17.30;74.80;;;;;;5012762;28;20035;-75
2023/10/20 00:24:30;;;;;;;5.22;4.10;;;17.30;74.80;;;;;;5031141;28;20421;-75
2023/10/20 00:26:56;;;;;;;5.32;3.72;;;17.30;74.80;;;;;;5033791;28;20033;-77
2023/10/20 00:29:22;;;;;;;5.60;3.95;;;17.30;74.80;;;;;;5031657;28;20461;-76
2023/10/20 00:31:49;;;;;;;4.65;3.85;;;17.30;74.80;;;;;;5050097;28;20532;-75
2023/10/20 00:34:15;;;;;;;5.00;3.92;;;17.30;74.80;;;;;;5021690;28;20063;-75
2023/10/20 00:36:41;;;;;;;5.22;3.95;;;17.30;74.90;;;;;;5023723;28;20084;-75
2023/10/20 00:39:07;;;;;;;5.10;3.58;;;17.30;74.90;;;;;;5040092;28;22209;-75
2023/10/20 00:41:35;;;;;;;5.45;3.97;;;17.30;74.90;;;;;;5026730;28;20120;-75
2023/10/20 00:44:01;;;;;;;5.60;4.45;;;17.30;74.90;;;;;;5035659;28;20033;-76
2023/10/20 00:46:28;;;;;;;5.70;4.20;;;17.30;74.90;;;;;;5041060;28;20033;-75
2023/10/20 00:48:56;;;;;;;5.68;4.47;;;17.30;74.90;;;;;;5046280;28;20032;-76
2023/10/20 00:51:21;;;;;;;5.45;4.20;;;17.30;74.90;;;;;;5004187;28;20054;-76
2023/10/20 00:53:47;;;;;;;6.35;4.45;;;17.30;74.90;;;;;;5025782;28;20064;-75
2023/10/20 00:56:14;;;;;;;5.32;4.13;;;17.30;74.90;;;;;;5036309;28;20471;-76
2023/10/20 00:58:40;;;;;;;5.57;4.40;;;17.30;75.00;;;;;;5041102;28;20040;-76
2023/10/20 01:01:06;;;;;;;5.60;4.32;;;17.30;75.00;;;;;;5017435;28;20029;-75
2023/10/20 01:03:33;;;;;;;5.30;4.55;;;17.20;74.90;;;;;;5039092;28;20040;-75
2023/10/20 01:06:01;;;;;;;5.80;4.75;;;17.30;75.60;;;;;;5030164;28;20065;-76
2023/10/20 01:08:26;;;;;;;5.68;4.63;;;17.20;74.90;;;;;;5030087;28;20384;-75
2023/10/20 01:10:53;;;;;;;5.95;4.70;;;17.20;75.00;;;;;;5036392;28;20044;-75
2023/10/20 01:13:22;;;;;;;5.78;4.47;;;17.20;75.00;;;;;;5032231;28;20030;-75
2023/10/20 01:15:49;;;;;;;5.68;4.75;;;17.20;75.00;;;;;;5032113;28;20029;-75
2023/10/20 01:18:15;;;;;;;6.85;4.60;;;17.20;75.00;;;;;;5031258;28;20116;-75
2023/10/20 01:20:41;;;;;;;5.55;4.80;;;17.20;75.00;;;;;;5015601;28;20108;-75
2023/10/20 01:23:07;;;;;;;6.75;4.78;;;17.20;75.00;;;;;;5030628;28;20045;-76
2023/10/20 01:25:32;;;;;;;6.10;4.93;;;17.20;75.00;;;;;;5030979;28;20466;-75
2023/10/20 01:27:58;;;;;;;5.80;4.97;;;17.20;75.00;;;;;;5027845;28;20382;-75
2023/10/20 01:30:25;;;;;;;6.63;5.25;;;17.20;75.00;;;;;;5016264;28;20420;-78
2023/10/20 01:32:51;;;;;;;6.45;5.53;;;17.20;75.00;;;;;;5046527;28;20379;-75
2023/10/20 01:35:16;;;;;;;5.90;5.18;;;17.20;75.00;;;;;;5036955;28;20030;-76
2023/10/20 01:37:43;;;;;;;7.28;5.75;;;17.20;75.00;;;;;;5030942;28;20081;-76
2023/10/20 01:40:11;;;;;;;6.95;5.53;;;17.20;75.00;;;;;;5040299;28;20108;-75
2023/10/20 01:42:37;;;;;;;5.70;5.05;;;17.20;75.10;;;;;;5019547;28;20497;-75
2023/10/20 01:45:04;;;;;;;7.38;5.65;;;17.20;75.10;;;;;;5033654;28;20042;-77
2023/10/20 01:47:31;;;;;;;6.50;5.47;;;17.20;75.10;;;;;;5037431;28;20033;-77
2023/10/20 01:49:57;;;;;;;7.18;5.90;;;17.20;75.10;;;;;;5043483;28;20462;-75
2023/10/20 01:52:22;;;;;;;6.82;6.13;;;17.20;75.10;;;;;;5026408;28;20029;-76
2023/10/20 01:54:49;;;;;;;6.80;5.75;;;17.20;75.10;;;;;;5018661;28;20029;-75
2023/10/20 01:57:15;;;;;;;6.13;5.53;;;17.20;75.10;;;;;;5020271;28;20041;-75
2023/10/20 01:59:40;;;;;;;6.97;5.88;;;17.20;75.10;;;;;;5012436;28;20164;-75
2023/10/20 02:02:06;;;;;;;6.70;5.63;;;17.20;75.10;;;;;;5027917;28;20033;-76
2023/10/20 02:04:32;;;;;;;7.57;6.00;;;17.20;75.10;;;;;;5035912;28;20044;-75
2023/10/20 02:06:57;;;;;;;7.25;6.13;;;17.20;75.10;;;;;;5036293;28;20550;-76
2023/10/20 02:09:26;;;;;;;7.45;6.38;;;17.20;75.10;;;;;;5039979;28;20555;-76
2023/10/20 02:11:56;;;;;;;6.82;5.97;;;17.10;75.10;;;;;;5046226;28;20033;-77
2023/10/20 02:14:23;;;;;;;6.72;6.03;;;17.10;75.10;;;;;;5016503;28;20041;-76
2023/10/20 02:16:50;;;;;;;7.20;5.80;;;17.10;75.10;;;;;;5028420;28;20025;-76
2023/10/20 02:19:17;;;;;;;8.45;6.97;;;17.20;75.10;;;;;;5016090;28;20025;-75
2023/10/20 02:21:42;;;;;;;7.75;6.40;;;17.10;75.10;;;;;;5017403;28;20076;-76
2023/10/20 02:24:08;;;;;;;7.60;6.47;;;17.10;75.10;;;;;;5034478;28;20061;-76
2023/10/20 02:26:34;;;;;;;7.28;5.97;;;17.10;75.00;;;;;;5000863;28;20037;-76
2023/10/20 02:29:00;;;;;;;7.55;6.38;;;17.10;75.10;;;;;;5037228;28;20494;-75
2023/10/20 02:31:25;;;;;;;7.68;6.43;;;17.10;75.10;;;;;;5021162;28;20034;-75
2023/10/20 02:33:51;;;;;;;7.30;6.57;;;17.10;75.10;;;;;;5026367;28;20029;-75
2023/10/20 02:36:18;;;;;;;7.50;6.70;;;17.10;75.10;;;;;;5038005;28;20075;-75
2023/10/20 02:38:44;;;;;;;7.85;6.50;;;17.10;75.10;;;;;;5027780;28;20066;-76
2023/10/20 02:41:10;;;;;;;7.93;6.82;;;17.10;75.10;;;;;;5037208;28;20029;-76
2023/10/20 02:43:36;;;;;;;8.23;6.78;;;17.10;75.10;;;;;;5041317;28;20037;-75
2023/10/20 02:46:02;;;;;;;8.95;7.65;;;17.10;75.10;;;;;;5023853;28;20037;-75
2023/10/20 02:48:29;;;;;;;7.82;6.75;;;17.10;75.10;;;;;;5035898;28;20041;-75
2023/10/20 02:50:54;;;;;;;7.90;6.60;;;17.10;75.10;;;;;;5045673;28;20037;-76
2023/10/20 02:53:20;;;;;;;8.27;7.00;;;17.10;75.10;;;;;;5040405;28;20529;-75
2023/10/20 02:55:46;;;;;;;8.00;7.10;;;17.10;75.10;;;;;;5034116;28;20091;-75
2023/10/20 02:58:13;;;;;;;8.88;7.00;;;17.10;75.10;;;;;;5044612;28;20026;-75
2023/10/20 03:00:46;;;;;;;8.45;7.00;;;17.10;75.10;;;;;;5048864;28;20063;-76
2023/10/20 03:03:13;;;;;;;8.25;6.85;;;17.10;75.10;;;;;;5038503;28;20191;-75
2023/10/20 03:05:43;;;;;;;7.53;6.43;;;17.00;75.10;;;;;;5020276;28;20139;-75
2023/10/20 03:08:10;;;;;;;9.18;7.75;;;17.00;75.10;;;;;;5034396;28;20061;-76
2023/10/20 03:10:36;;;;;;;9.27;7.88;;;17.00;75.10;;;;;;5038079;28;20037;-75
2023/10/20 03:13:05;;;;;;;8.18;6.88;;;17.00;75.10;;;;;;5034268;28;20065;-75
2023/10/20 03:15:31;;;;;;;9.00;7.25;;;17.00;75.10;;;;;;5030672;28;20482;-76
2023/10/20 03:17:58;;;;;;;8.68;6.93;;;17.00;75.10;;;;;;5034140;28;20389;-76
2023/10/20 03:20:28;;;;;;;9.27;7.95;;;17.00;75.10;;;;;;5037134;28;20025;-75
2023/10/20 03:22:57;;;;;;;9.82;7.90;;;17.00;75.10;;;;;;5036562;28;20029;-75
2023/10/20 03:25:22;;;;;;;9.85;7.70;;;17.00;75.10;;;;;;5045413;28;20576;-75
2023/10/20 03:27:49;;;;;;;9.45;7.95;;;17.00;75.10;;;;;;5015051;28;20033;-76
2023/10/20 03:30:18;;;;;;;10.27;7.53;;;16.90;75.10;;;;;;5030561;28;20037;-77
2023/10/20 03:32:47;;;;;;;10.50;7.40;;;16.90;75.10;;;;;;5034484;28;20029;-76
2023/10/20 03:35:13;;;;;;;10.45;8.10;;;16.90;75.10;;;;;;5036793;28;20056;-78
2023/10/20 03:37:39;;;;;;;10.15;7.50;;;17.00;75.20;;;;;;5044516;28;20052;-76
2023/10/20 03:40:13;;;;;;;9.98;7.75;;;16.90;75.10;;;;;;5013220;28;20034;-75
2023/10/20 03:42:41;;;;;;;10.60;8.20;;;16.90;75.10;;;;;;5028942;28;20029;-75
2023/10/20 03:45:09;;;;;;;10.82;8.32;;;16.90;75.10;;;;;;5036660;28;20041;-75
2023/10/20 03:47:38;;;;;;;10.50;7.88;;;16.90;75.10;;;;;;5037888;28;20116;-76
2023/10/20 03:50:14;;;;;;;10.50;8.35;;;16.90;75.10;;;;;;5034223;28;20029;-76
2023/10/20 03:52:41;;;;;;;9.77;7.55;;;16.90;75.10;;;;;;5036175;28;20075;-75
2023/10/20 03:55:13;;;;;;;11.55;8.75;;;16.90;75.10;;;;;;5055719;28;20040;-75
2023/10/20 03:57:43;;;;;;;11.18;8.75;;;16.80;75.00;;;;;;5033518;28;20033;-76
2023/10/20 04:00:33;;;;;;;11.07;8.00;;;16.80;75.00;;;;;;5034124;28;20030;-75
2023/10/20 04:02:59;;;;;;;10.35;7.75;;;16.80;75.10;;;;;;5047434;28;20060;-75
2023/10/20 04:05:26;;;;;;;11.00;8.50;;;16.80;75.00;;;;;;5016175;28;20061;-75
2023/10/20 04:07:52;;;;;;;10.50;8.02;;;16.80;75.10;;;;;;5014969;28;20516;-75
2023/10/20 04:10:21;;;;;;;11.18;8.52;;;16.80;75.10;;;;;;5033734;28;20104;-75
2023/10/20 04:12:47;;;;;;;10.23;7.80;;;16.80;75.10;;;;;;5046103;28;20398;-77
2023/10/20 04:15:19;;;;;;;10.68;8.18;;;16.70;75.00;;;;;;5015387;28;20046;-75
2023/10/20 04:17:51;;;;;;;12.48;9.40;;;16.70;75.10;;;;;;5024566;28;20041;-75
2023/10/20 04:20:20;;;;;;;11.20;8.00;;;16.70;75.10;;;;;;5032079;28;20380;-77
2023/10/20 04:22:50;;;;;;;10.38;7.93;;;16.70;75.00;;;;;;5040911;28;20021;-75
2023/10/20 04:25:22;;;;;;;10.23;7.78;;;16.70;75.10;;;;;;5037172;28;20088;-75
2023/10/20 04:27:57;;;;;;;11.63;8.57;;;16.70;75.10;;;;;;5030846;28;20029;-75
2023/10/20 05:08:04;;;;;;;11.07;8.40;;;16.50;75.10;;;;;;5037664;28;20037;-76
2023/10/20 05:10:31;;;;;;;10.65;7.82;;;16.50;75.10;;;;;;5042581;28;20037;-76
2023/10/20 05:12:57;;;;;;;11.20;8.18;;;16.50;75.10;;;;;;5029605;28;20041;-77
2023/10/20 05:15:23;;;;;;;10.93;8.05;;;16.50;75.10;;;;;;5016161;28;20056;-78
2023/10/20 05:17:52;;;;;;;10.43;7.93;;;16.50;75.10;;;;;;5035568;28;20033;-77
2023/10/20 05:20:21;;;;;;;10.43;7.38;;;16.40;75.10;;;;;;5028251;28;20029;-79
2023/10/20 05:22:48;;;;;;;10.05;7.70;;;16.40;75.10;;;;;;5033438;28;20036;-76
2023/10/20 05:25:14;;;;;;;10.23;7.35;;;16.40;75.10;;;;;;5022228;28;20034;-75
2023/10/20 05:27:40;;;;;;;10.02;7.45;;;16.40;75.10;;;;;;5034184;28;20032;-75
2023/10/20 05:30:07;;;;;;;9.45;7.22;;;16.40;75.10;;;;;;5035172;28;20079;-76
2023/10/20 05:32:34;;;;;;;9.90;7.55;;;16.40;75.10;;;;;;5030120;28;20048;-77
2023/10/20 05:35:01;;;;;;;9.90;7.20;;;16.40;75.10;;;;;;5040994;28;20033;-75
2023/10/20 05:37:27;;;;;;;9.60;7.32;;;16.40;75.10;;;;;;5030972;28;20032;-76
2023/10/20 05:39:53;;;;;;;9.10;6.68;;;16.40;75.10;;;;;;5034966;28;20098;-75
2023/10/20 05:42:19;;;;;;;9.38;7.05;;;16.30;75.10;;;;;;5017957;28;20056;-76
2023/10/20 05:44:58;;;;;;;9.32;7.10;;;16.30;75.10;;;;;;5036240;28;20048;-81
2023/10/20 05:47:25;;;;;;;10.30;6.90;;;16.30;75.10;;;;;;5032721;28;20099;-80
2023/10/20 05:49:51;;;;;;;9.05;6.63;;;16.30;75.10;;;;;;5017326;28;20034;-76
2023/10/20 05:52:17;;;;;;;8.98;6.88;;;16.30;75.10;;;;;;5037420;28;20025;-77
2023/10/20 05:54:43;;;;;;;8.38;6.28;;;16.30;75.10;;;;;;5028938;28;20034;-75
2023/10/20 05:57:08;;;;;;;8.55;6.28;;;16.30;75.10;;;;;;5032103;28;20083;-75
2023/10/20 05:59:34;;;;;;;8.40;5.90;;;16.30;75.10;;;;;;5022259;28;20033;-78
2023/10/20 06:02:03;;;;;;;7.60;5.72;;;16.20;75.10;;;;;;4998999;28;20084;-75
2023/10/20 06:04:29;;;;;;;7.47;5.57;;;16.20;75.10;;;;;;5031112;28;20036;-79
2023/10/20 06:06:55;;;;;;;7.18;5.63;;;16.20;75.10;;;;;;5031462;28;20126;-77
2023/10/20 06:09:21;;;;;;;8.02;6.13;;;16.20;75.10;;;;;;5032768;28;20128;-76
2023/10/20 06:11:46;;;;;;;7.25;5.53;;;16.20;75.10;;;;;;5035892;28;20475;-75
2023/10/20 06:14:12;;;;;;;7.63;5.60;;;16.20;75.10;;;;;;5039651;28;20047;-75
2023/10/20 06:16:38;;;;;;;6.57;5.15;;;16.20;75.20;;;;;;5031221;28;20052;-74
2023/10/20 06:19:04;;;;;;;7.57;5.60;;;16.10;75.20;;;;;;5038817;28;20033;-75
2023/10/20 06:21:30;;;;;;;7.55;4.97;;;16.10;75.20;;;;;;5038593;28;20509;-75
2023/10/20 06:23:56;;;;;;;7.65;5.55;;;16.10;75.20;;;;;;5024228;28;20041;-75
2023/10/20 06:26:22;;;;;;;7.18;5.00;;;16.10;75.20;;;;;;5021869;28;20091;-75
2023/10/20 06:28:48;;;;;;;6.93;4.80;;;16.10;75.20;;;;;;5021553;28;20037;-76
2023/10/20 06:36:48;;;;;;;6.65;4.45;;;16.00;75.20;;;;;;5039018;28;20071;-74
2023/10/20 06:39:18;;;;;;;6.43;4.72;;;16.00;75.20;;;;;;5045120;28;20098;-75
2023/10/20 06:41:44;;;;;;;6.95;4.95;;;16.00;75.30;;;;;;5039854;28;20370;-76
2023/10/20 06:44:18;;;;;;;6.72;4.72;;;16.00;75.30;;;;;;5019025;28;20129;-75
2023/10/20 06:46:45;;;;;;;6.45;4.68;;;16.00;75.30;;;;;;5039581;28;20120;-75
2023/10/20 06:49:18;;;;;;;6.85;5.22;;;15.90;75.30;;;;;;5037085;28;20034;-75
2023/10/20 06:51:44;;;;;;;7.47;5.15;;;16.00;75.40;;;;;;5048683;28;20535;-75
2023/10/20 06:54:10;;;;;;;7.63;5.72;;;15.90;75.30;;;;;;5041933;28;20033;-76
2023/10/20 06:56:37;;;;;;;7.80;5.38;;;15.90;75.30;;;;;;5011761;28;20033;-76
2023/10/20 06:59:03;;;;;;;7.05;5.25;;;15.90;75.30;;;;;;5041096;28;20040;-76
2023/10/20 07:01:32;;;;;;;7.78;5.85;;;15.90;75.40;;;;;;5020637;28;20025;-75
2023/10/20 07:03:58;;;;;;;7.25;5.18;;;15.90;75.40;;;;;;5040139;28;20037;-75
2023/10/20 07:06:24;;;;;;;8.63;5.57;;;15.90;75.40;;;;;;5038721;28;20032;-74
2023/10/20 07:08:50;;;;;;;7.47;5.22;;;15.90;75.40;;;;;;5035465;28;20056;-75
2023/10/20 07:11:16;;;;;;;7.72;5.50;;;15.90;75.40;;;;;;5033346;28;20049;-76
2023/10/20 07:13:45;;;;;;;8.93;6.00;;;15.90;75.40;;;;;;5027398;28;20413;-75
2023/10/20 07:16:14;;;;;;;7.38;4.90;;;15.80;75.40;;;;;;5045101;28;20086;-75
2023/10/20 07:18:40;;;;;;;7.18;5.13;;;15.80;75.40;;;;;;5033711;28;20029;-75
2023/10/20 07:21:05;;;;;;;7.90;5.32;;;15.80;75.40;;;;;;5035051;28;20409;-75
2023/10/20 07:23:34;;;;;;;7.50;5.68;;;15.80;75.40;;;;;;5040967;28;20037;-76
2023/10/20 07:25:59;;;;;;;7.63;5.68;;;15.80;75.40;;;;;;5031312;28;20543;-75
2023/10/20 07:28:25;;;;;;;7.90;5.82;;;15.80;75.40;;;;;;5036437;28;20041;-75
2023/10/20 07:30:53;;;;;;;7.57;5.72;;;15.80;75.40;;;;;;5032577;28;20494;-75
2023/10/20 07:33:19;;;;;;;7.35;5.32;;;15.70;75.40;;;;;;5037815;28;20116;-75
2023/10/20 07:35:46;;;;;;;7.07;4.75;;;15.70;75.40;;;;;;5039297;28;20092;-75
2023/10/20 07:38:12;;;;;;;6.75;5.13;;;15.70;75.50;;;;;;5031793;28;20032;-75
2023/10/20 07:40:38;;;;;;;6.40;5.15;;;15.70;75.40;;;;;;5043164;28;20026;-75
2023/10/20 07:43:07;;;;;;;7.32;5.20;;;15.70;75.50;;;;;;5044154;28;20045;-74
2023/10/20 07:45:41;;;;;;;6.88;4.70;;;15.70;75.50;;;;;;5041717;28;20022;-75
2023/10/20 07:48:07;;;;;;;7.15;4.75;;;15.60;75.50;;;;;;5035756;28;20017;-75
2023/10/20 07:50:33;;;;;;;7.30;4.80;;;15.70;75.50;;;;;;5016054;28;20033;-76
2023/10/20 07:52:59;;;;;;;6.32;4.38;;;15.60;75.40;;;;;;5012313;28;20471;-75
2023/10/20 07:55:25;;;;;;;6.32;4.55;;;15.70;75.50;;;;;;5032637;28;20032;-75
2023/10/20 07:57:51;;;;;;;5.88;4.13;;;15.60;75.50;;;;;;4998304;28;20034;-75
2023/10/20 08:00:18;;;;;;;7.03;4.50;;;15.60;75.50;;;;;;5035063;28;20040;-75
2023/10/20 08:02:44;;;;;;;6.53;4.43;;;15.60;75.50;;;;;;5034641;28;20033;-76
2023/10/20 08:05:10;;;;;;;6.13;4.32;;;15.60;75.50;;;;;;5040195;28;20044;-77
2023/10/20 08:07:38;;;;;;;6.15;4.25;;;15.60;75.50;;;;;;5038574;28;20038;-75
2023/10/20 08:10:07;;;;;;;5.90;3.83;;;15.50;75.50;;;;;;5042547;28;20052;-75
2023/10/20 08:12:33;;;;;;;5.97;3.85;;;15.60;75.60;;;;;;5035258;28;20034;-76
2023/10/20 08:14:58;;;;;;;5.50;4.00;;;15.50;75.50;;;;;;5001342;28;20079;-75
2023/10/20 08:17:24;;;;;;;6.05;4.00;;;15.50;75.50;;;;;;5038513;28;20040;-75
2023/10/20 08:19:50;;;;;;;5.50;3.47;;;15.50;75.50;;;;;;5048340;28;20033;-75
2023/10/20 08:22:16;;;;;;;5.65;3.75;;;15.50;75.50;;;;;;5041115;28;20052;-75
2023/10/20 08:24:42;;;;;;;4.95;3.22;;;15.50;75.60;;;;;;5042730;28;20072;-75
2023/10/20 08:27:08;;;;;;;5.10;3.45;;;15.50;75.60;;;;;;5006064;28;20538;-75
2023/10/20 08:29:34;;;;;;;4.80;3.42;;;15.50;75.60;;;;;;5044793;28;20471;-76
2023/10/20 08:31:59;;;;;;;4.63;3.20;;;15.40;75.50;;;;;;5038233;28;20025;-75
2023/10/20 08:34:25;;;;;;;4.80;3.40;;;15.40;75.60;;;;;;5032994;28;20441;-75
2023/10/20 08:36:51;;;;;;;4.28;3.10;;;15.40;75.60;;;;;;5021465;28;20030;-75
2023/10/20 08:39:20;;;;;;;4.63;2.85;;;15.40;75.60;;;;;;5021880;28;20521;-75
2023/10/20 08:41:46;;;;;;;4.20;3.00;;;15.40;75.60;;;;;;5024356;28;20052;-76
2023/10/20 08:44:12;;;;;;;4.05;2.85;;;15.40;75.60;;;;;;5045272;28;20037;-75
2023/10/20 08:46:42;;;;;;;3.97;2.92;;;15.40;75.70;;;;;;5039997;28;20026;-75
2023/10/20 08:49:09;;;;;;;3.63;2.45;;;15.40;75.60;;;;;;5022248;28;20539;-75
2023/10/20 08:51:38;;;;;;;4.20;2.88;;;15.40;75.60;;;;;;5041979;28;20025;-75
2023/10/20 08:54:08;;;;;;;4.28;2.72;;;15.30;75.70;;;;;;5035587;28;20030;-75
2023/10/20 08:56:34;;;;;;;3.55;2.10;;;15.30;75.60;;;;;;5038973;28;20033;-75
2023/10/20 08:59:00;;;;;;;3.03;2.17;;;15.30;75.70;;;;;;5042629;28;20465;-75
2023/10/20 09:01:25;;;;;;;2.97;2.30;;;15.30;75.70;;;;;;5036640;28;20033;-76
2023/10/20 09:03:59;;;;;;;3.00;2.10;;;15.30;75.70;;;;;;5036428;28;20053;-74
2023/10/20 09:06:27;;;;;;;2.60;1.95;;;15.30;75.70;;;;;;5032247;28;20045;-75
2023/10/20 09:08:53;;;;;;;3.28;2.17;;;15.30;75.70;;;;;;5022221;28;20490;-76
2023/10/20 09:11:19;;;;;;;2.70;2.20;;;15.20;75.70;;;;;;5039826;28;20110;-80
2023/10/20 09:13:46;;;;;;;2.65;2.10;;;15.20;75.70;;;;;;5017045;28;20082;-79
2023/10/20 09:16:13;;;;;;;2.55;1.83;;;15.20;75.70;;;;;;5023418;28;20438;-75
2023/10/20 09:18:47;;;;;;;2.90;1.85;;;15.20;75.70;;;;;;5024839;28;20049;-75
2023/10/20 09:21:14;;;;;;;1.65;1.55;;;15.20;75.70;;;;;;5045619;28;20120;-76
2023/10/20 09:23:41;;;;;;;2.08;1.73;;;15.20;75.70;;;;;;5037994;28;20030;-76
2023/10/20 09:26:06;;;;;;;1.80;1.52;;;15.10;75.70;;;;;;5038090;28;20096;-75
2023/10/20 09:28:32;;;;;;;1.92;1.73;;;15.20;75.80;;;;;;5017767;28;20117;-78
2023/10/20 09:30:59;;;;;;;2.67;1.75;;;15.10;75.70;;;;;;5042697;28;20025;-75
2023/10/20 09:33:26;;;;;;;2.10;1.73;;;15.10;75.80;;;;;;5037553;28;20584;-76
2023/10/20 09:35:52;;;;;;;1.90;1.67;;;15.10;75.80;;;;;;5041914;28;20116;-76
2023/10/20 09:38:27;;;;;;;1.75;1.50;;;15.10;75.80;;;;;;5033280;28;20096;-75
2023/10/20 09:41:11;;;;;;;1.90;1.63;;;15.10;75.80;;;;;;5031662;28;20056;-75
2023/10/20 09:43:47;;;;;;;1.98;1.65;;;15.10;75.90;;;;;;5033812;28;20033;-75
2023/10/20 09:46:30;;;;;;;1.58;1.45;;;15.00;75.80;;;;;;5030772;28;20049;-76
2023/10/20 09:48:59;;;;;;;1.60;1.40;;;15.00;75.80;;;;;;5039917;28;20072;-76
2023/10/20 09:51:26;;;;;;;2.50;1.60;;;15.00;75.80;;;;;;5039372;28;20022;-75
2023/10/20 09:53:52;;;;;;;1.92;1.50;;;15.00;75.80;;;;;;5038246;28;20036;-76
2023/10/20 09:56:20;;;;;;;1.83;1.58;;;15.00;75.80;;;;;;5039302;28;20033;-75
2023/10/20 09:58:46;;;;;;;1.90;1.63;;;15.00;75.80;;;;;;5041904;28;20061;-77
2023/10/20 10:01:17;;;;;;;1.70;1.40;;;14.90;75.80;;;;;;5021231;28;20029;-77
2023/10/20 10:04:00;;;;;;;1.80;1.67;;;14.90;75.80;;;;;;5035265;28;20045;-75
2023/10/20 10:06:25;;;;;;;1.38;1.25;;;14.90;75.90;;;;;;5045171;28;20057;-75
2023/10/20 10:08:53;;;;;;;1.30;1.20;;;14.90;76.50;;;;;;5034569;28;20615;-75
2023/10/20 10:11:27;;;;;;;1.42;1.33;;;14.90;75.90;;;;;;5046366;28;20037;-75
2023/10/20 10:13:54;;;;;;;1.83;1.65;;;14.90;75.90;;;;;;5048757;28;20362;-76
2023/10/20 10:16:23;;;;;;;1.38;1.27;;;14.90;75.80;;;;;;5023292;28;20065;-76
2023/10/20 10:18:50;;;;;;;1.65;1.35;;;14.80;75.90;;;;;;5017547;28;20100;-76
2023/10/20 10:21:32;;;;;;;1.77;1.40;;;14.80;75.80;;;;;;5043114;28;20060;-76
2023/10/20 10:24:17;;;;;;;1.48;1.30;;;14.90;76.00;;;;;;5039048;28;20120;-76
2023/10/20 10:26:49;;;;;;;1.40;1.33;;;14.80;75.90;;;;;;5035508;28;20029;-74
2023/10/20 10:29:15;;;;;;;1.23;1.10;;;14.80;75.90;;;;;;5030863;28;20043;-75
2023/10/20 10:31:41;;;;;;;1.30;1.20;;;14.80;75.90;;;;;;5038735;28;20525;-75
2023/10/20 10:34:07;;;;;;;1.42;1.33;;;14.80;76.00;;;;;;5035860;28;20103;-75
2023/10/20 10:36:47;;;;;;;1.38;1.25;;;14.80;76.00;;;;;;5032274;28;20470;-75
2023/10/20 10:39:24;;;;;;;1.10;1.00;;;14.80;76.00;;;;;;5036199;28;20450;-76
2023/10/20 10:41:52;;;;;;;1.17;1.08;;;14.80;76.10;;;;;;5026325;28;20029;-76
2023/10/20 10:44:20;;;;;;;1.05;1.00;;;14.70;76.00;;;;;;5050753;28;20520;-75
2023/10/20 10:46:47;;;;;;;0.95;0.93;;;14.80;76.00;;;;;;5047246;28;20370;-75
2023/10/20 10:49:14;;;;;;;1.20;1.10;;;14.70;76.00;;;;;;5022625;28;20394;-76
2023/10/20 10:51:46;;;;;;;1.02;1.00;;;14.70;76.00;;;;;;5047903;28;20104;-76
2023/10/20 10:54:13;;;;;;;1.35;1.17;;;14.70;76.00;;;;;;5043070;28;20033;-75
2023/10/20 10:56:41;;;;;;;1.20;1.10;;;14.70;76.00;;;;;;5043043;28;20049;-75
2023/10/20 10:59:10;;;;;;;1.73;1.00;;;14.70;76.00;;;;;;5041642;28;20488;-78
2023/10/20 11:01:39;;;;;;;1.00;1.00;;;14.70;76.70;;;;;;5026369;28;20087;-76
2023/10/20 11:04:09;;;;;;;1.00;1.00;;;14.70;76.00;;;;;;5036655;28;20409;-75
2023/10/20 11:06:39;;;;;;;0.90;0.90;;;14.70;76.00;;;;;;5059695;28;20032;-75
2023/10/20 11:09:13;;;;;;;0.90;0.90;;;14.70;76.10;;;;;;5048667;28;20049;-76
2023/10/20 11:11:42;;;;;;;1.00;1.00;;;14.70;76.10;;;;;;5048537;28;20466;-75
2023/10/20 11:14:11;;;;;;;1.00;1.00;;;14.70;76.00;;;;;;5041336;28;20061;-75
2023/10/20 11:16:37;;;;;;;1.10;1.10;;;14.60;76.00;;;;;;5023925;28;20055;-75
2023/10/20 11:19:03;;;;;;;1.10;1.00;;;14.60;76.00;;;;;;5024952;28;20459;-75
2023/10/20 11:21:40;;;;;;;0.90;0.90;;;14.60;76.00;;;;;;5036342;28;20060;-76
2023/10/20 11:24:07;;;;;;;1.10;1.00;;;14.60;76.00;;;;;;5045568;28;20045;-75
2023/10/20 11:26:35;;;;;;;0.98;0.93;;;14.60;76.00;;;;;;5036886;28;20474;-75
2023/10/20 11:29:07;;;;;;;1.00;1.00;;;14.60;76.00;;;;;;5001516;28;20072;-75
2023/10/20 11:31:35;;;;;;;1.00;1.00;;;14.60;76.10;;;;;;5039801;28;20111;-75
2023/10/20 11:34:01;;;;;;;1.25;1.00;;;14.60;76.00;;;;;;5033222;28;20501;-76
2023/10/20 11:36:26;;;;;;;1.02;0.93;;;14.60;76.00;;;;;;5022292;28;20036;-75
2023/10/20 11:38:52;;;;;;;1.02;1.02;;;14.60;76.10;;;;;;5006370;28;20041;-75
2023/10/20 11:41:18;;;;;;;0.80;0.80;;;14.60;76.10;;;;;;5040315;28;20028;-74
2023/10/20 11:43:44;;;;;;;0.90;0.90;;;14.60;76.10;;;;;;5040147;28;20040;-75
2023/10/20 11:46:11;;;;;;;0.90;0.90;;;14.60;76.10;;;;;;5024803;28;20040;-75
2023/10/20 11:48:37;;;;;;;1.13;0.90;;;14.60;76.10;;;;;;5021982;28;20033;-75
2023/10/20 11:51:02;;;;;;;1.13;1.02;;;14.60;76.20;;;;;;5018855;28;20375;-75
2023/10/20 11:53:28;;;;;;;0.80;0.80;;;14.60;76.10;;;;;;5051488;28;20072;-75
2023/10/20 11:55:54;;;;;;;0.90;0.90;;;14.60;76.20;;;;;;5023493;28;20454;-75
2023/10/20 11:58:20;;;;;;;1.00;1.00;;;14.60;76.20;;;;;;5040391;28;20033;-77
2023/10/20 12:00:46;;;;;;;1.10;1.05;;;14.60;76.20;;;;;;5038159;28;20047;-75
2023/10/20 12:03:11;;;;;;;1.00;1.00;;;14.50;76.20;;;;;;5033122;28;20466;-76
2023/10/20 12:05:37;;;;;;;1.10;1.00;;;14.50;76.10;;;;;;5042538;28;20026;-75
2023/10/20 12:08:06;;;;;;;0.77;0.77;;;14.60;76.20;;;;;;5028780;28;20095;-75
2023/10/20 12:10:32;;;;;;;1.13;1.10;;;14.50;76.20;;;;;;5044799;28;20026;-75
2023/10/20 12:13:04;;;;;;;0.90;0.90;;;14.50;76.10;;;;;;5039102;28;20485;-76
2023/10/20 12:15:30;;;;;;;1.67;1.17;;;14.50;76.20;;;;;;5042341;28;20467;-75
2023/10/20 12:17:57;;;;;;;0.90;0.90;;;14.50;76.20;;;;;;5022752;28;20124;-75
2023/10/20 12:20:24;;;;;;;0.80;0.80;;;14.50;76.20;;;;;;5035404;28;20051;-75
2023/10/20 12:22:55;;;;;;;0.80;0.80;;;14.50;76.20;;;;;;5023357;28;20117;-75
2023/10/20 12:25:21;;;;;;;0.82;0.82;;;14.50;76.20;;;;;;5038860;28;20041;-75
2023/10/20 12:27:47;;;;;;;0.93;0.93;;;14.50;76.80;;;;;;5038686;28;20026;-75
2023/10/20 12:30:13;;;;;;;1.00;1.00;;;14.50;76.20;;;;;;5031091;28;20387;-75
2023/10/20 12:32:39;;;;;;;1.10;1.10;;;14.50;76.20;;;;;;5046663;28;20033;-77
2023/10/20 12:35:05;;;;;;;1.00;0.90;;;14.50;76.20;;;;;;5039494;28;20064;-75
2023/10/20 12:37:32;;;;;;;1.27;1.15;;;14.50;76.20;;;;;;5020071;28;20084;-75
2023/10/20 12:39:59;;;;;;;0.90;0.90;;;14.50;76.20;;;;;;5043640;28;20045;-75
2023/10/20 12:42:27;;;;;;;1.10;1.00;;;14.50;76.30;;;;;;5042546;28;20033;-75
2023/10/20 12:44:52;;;;;;;0.85;0.85;;;14.50;76.30;;;;;;5028377;28;20041;-76
2023/10/20 12:47:19;;;;;;;0.80;0.80;;;14.50;76.20;;;;;;5038814;28;21118;-75
2023/10/20 12:49:45;;;;;;;1.20;1.10;;;14.50;76.20;;;;;;5042648;28;20478;-75
2023/10/20 12:52:12;;;;;;;0.95;0.95;;;14.50;76.20;;;;;;5020703;28;20033;-75
2023/10/20 12:54:38;;;;;;;0.90;0.90;;;14.50;76.20;;;;;;5026771;28;20039;-75
2023/10/20 12:57:04;;;;;;;1.15;1.10;;;14.50;76.20;;;;;;5038838;28;20034;-76
2023/10/20 12:59:30;;;;;;;0.95;0.80;;;14.50;76.20;;;;;;5044880;28;20022;-76
2023/10/20 13:01:56;;;;;;;1.00;1.00;;;14.50;76.30;;;;;;5009652;28;20090;-75
2023/10/20 13:04:21;;;;;;;0.90;0.90;;;14.50;76.30;;;;;;5041177;28;20558;-76
2023/10/20 13:06:48;;;;;;;0.90;0.90;;;14.50;76.30;;;;;;5043659;28;20532;-75
2023/10/20 13:09:14;;;;;;;0.80;0.80;;;14.50;76.20;;;;;;5041241;28;20049;-75
2023/10/20 13:11:40;;;;;;;0.90;0.90;;;14.50;76.20;;;;;;5043407;28;20025;-75
2023/10/20 13:14:05;;;;;;;0.90;0.90;;;14.50;76.20;;;;;;5042819;28;20043;-75
2023/10/20 13:16:31;;;;;;;0.95;0.90;;;14.50;76.20;;;;;;5021634;28;20059;-75
2023/10/20 13:18:59;;;;;;;0.93;0.90;;;14.50;76.20;;;;;;5010220;28;20045;-76
2023/10/20 13:21:26;;;;;;;0.70;0.70;;;14.50;76.30;;;;;;5038135;28;20030;-75
2023/10/20 13:23:53;;;;;;;0.80;0.80;;;14.40;76.20;;;;;;5039344;28;20430;-75
2023/10/20 13:26:19;;;;;;;0.80;0.80;;;14.50;76.30;;;;;;5040448;28;20037;-75
2023/10/20 13:28:44;;;;;;;0.90;0.90;;;14.40;76.20;;;;;;5032446;28;20034;-75